Aérodrome :
LOGIN :

S'inscrire | Disclaimer

   EN    FR    IT 

 










Légende :    VFR   VFR Marginal   IFR   IFR Intensif   IFR Très Intensif
Visi : 
Plafond : 
>= 8 km
>= 3000ft
5 à 8 km
1000 à 3000 ft
1500m à 5 km
500 à 1000 ft
800 à 1500m
200 à 500 ft
< 800m
< 200 ft
Symboles :   Orages  Brouillard  Fortes neiges  Fortes précipitations  Vent > 20 kt
SIGMETs :   Divers  Orages  Givrage  Turbulence  Onde Orograph.  Cendres Volcan.







- Altitude de l'aérodrome : -15 ft
- Code IATA : RTM


EHRD - Rotterdam Zestienhoven

DERNIER METAR :
  • 161525Z AUTO 26011KT 9999 FEW015CB 04/01 Q0993 TEMPO 6000 SHRAGS

METARs EXPIRÉS :
  • 161455Z AUTO 25013KT 220V290 9999 SCT030/// SCT039/// 06/01 Q0993 NOSIG
  • 161425Z AUTO 26013KT 230V300 9999 SCT029 SCT034 06/01 Q0993 NOSIG
  • 161355Z AUTO 26016KT 230V300 9999 SCT027 BKN032 BKN037 07/02 Q0993 NOSIG
  • 161325Z AUTO 27015G25KT 230V300 9999 FEW028 SCT032 BKN039 06/01 Q0993 NOSIG
  • 161255Z AUTO 27016KT 230V300 9999 SCT028/// BKN032/// BKN040/// 06/01 Q0993 NOSIG

TAF TAF EHRD
Valide du 16 à 12h jusqu'au 17 à 18h UTC


161110Z 1612/1718 27018G28KT 9999 SCT025
PROB40
TEMPO 1612/1616 28022G33KT 6000 SHRA SHRAGS SCT015 SCT020CB
BECMG 1616/1619 25015KT
TEMPO 1616/1710 27022G35KT 4000 SHRAGS SHRASN TSGS BKN012 SCT020CB
BECMG 1700/1703 27020G30KT
PROB30
TEMPO 1700/1709 1500 SHSN BKN005 SCT015CB
BECMG 1707/1710 28023G35KT
TEMPO 1710/1715 29028G40KT 4000 SHRAGS SHRASN BKN012 SCT020CB
Pas de NOTAMs connus pour ce terrain.



MET'MAP, la Météo Aéronautique d'un coup d'oeil ! - Copyright ORBIFLY Décembre 2007 - Disclaimer

ORBIFLY MET'MAP TEAM :

Programmation & Développement : Alexandra Zaïnal
Conception & Développement : Baudouin d'Aumeries
Co-Programmation & Développement : Marc-Olivier Méhu
Soutien technique & logistique : Manuel Goepfert

Contact : metmap@orbifly.com




SOURCES & CREDITS :

   NOAA